CST,Max TemperatureF,Mean TemperatureF,Min TemperatureF,Max Dew PointF,MeanDew PointF,Min DewpointF,Max Humidity, Mean Humidity, Min Humidity, Max Sea Level PressureIn, Mean Sea Level PressureIn, Min Sea Level PressureIn, Max VisibilityMiles, Mean VisibilityMiles, Min VisibilityMiles, Max Wind SpeedMPH, Mean Wind SpeedMPH, Max Gust SpeedMPH,PrecipitationIn, CloudCover, Events, WindDirDegrees
2012-11-1,82,62,42,32,30,27,66,36,13,30.09,30.01,29.91,10,10,10,16,8,21,0.00,0,,221
2012-11-2,80,66,51,37,31,23,58,31,12,30.06,29.93,29.88,10,10,10,20,12,24,0.00,0,,284
2012-11-3,62,48,35,36,33,30,87,57,32,30.24,30.18,30.07,10,10,7,12,7,16,0.00,0,,50
2012-11-4,71,52,32,37,33,27,87,56,27,30.22,30.15,30.05,10,10,10,12,4,16,0.00,0,,228
2012-11-5,68,56,44,36,32,30,71,43,26,30.26,30.18,30.11,10,10,10,15,7,20,0.00,1,,351
2012-11-6,73,56,39,36,33,30,75,46,23,30.20,30.16,30.11,10,10,10,15,7,20,0.00,0,,290
2012-11-7,82,60,37,39,35,32,81,46,16,30.20,30.06,29.91,10,10,10,25,9,32,0.00,0,,200
2012-11-8,82,66,50,41,28,19,55,29,10,29.91,29.86,29.81,10,10,10,21,12,29,0.00,0,,222
2012-11-9,82,68,53,45,35,27,67,32,14,29.84,29.78,29.72,10,10,10,29,15,39,0.00,0,,220
2012-11-10,78,68,55,54,41,21,77,39,18,29.80,29.69,29.57,10,10,7,37,21,52,0.00,2,,217
2012-11-11,55,40,24,34,19,12,81,45,22,30.30,30.02,29.77,10,10,10,16,10,23,0.00,3,,346
2012-11-12,53,37,21,19,11,1,74,40,12,30.44,30.38,30.30,10,10,10,14,7,18,0.00,0,,224
2012-11-13,60,42,24,19,17,14,69,40,16,30.40,30.29,30.17,10,10,10,23,11,31,0.00,0,,217
2012-11-14,68,49,30,21,16,10,55,33,12,30.33,30.23,30.13,10,10,10,17,9,22,0.00,0,,209
2012-11-15,62,48,33,27,23,18,70,43,20,30.35,30.21,30.09,10,10,10,16,7,23,0.00,0,,324
2012-11-16,62,44,26,39,31,21,80,62,39,30.40,30.32,30.24,10,10,10,20,6,25,0.00,0,,187
2012-11-17,68,54,41,43,38,34,81,58,33,30.24,30.18,30.12,10,10,10,24,16,32,0.00,0,,189
2012-11-18,73,58,44,48,40,36,82,56,25,30.12,30.05,29.97,10,10,10,23,12,32,0.00,1,Rain,198
2012-11-19,73,55,37,46,36,30,100,59,22,30.20,30.12,30.04,10,10,10,15,7,,0.00,0,,303
2012-11-20,73,53,33,37,33,27,87,50,18,30.30,30.22,30.17,10,10,10,14,6,18,0.00,0,,192
2012-11-21,73,56,39,45,38,30,87,51,20,30.20,30.10,29.95,10,10,10,26,12,33,0.00,0,,210
2012-11-22,75,60,46,48,36,23,77,46,15,30.37,30.02,29.90,10,10,10,24,15,33,0.00,0,,316
2012-11-23,53,42,32,30,19,12,75,44,19,30.58,30.48,30.39,10,10,10,12,6,17,0.00,0,,26
2012-11-24,68,49,30,23,18,12,52,34,17,30.38,30.12,29.90,10,10,10,29,11,36,0.00,0,,224
2012-11-25,68,49,30,25,23,19,69,43,18,29.92,29.87,29.82,10,10,10,10,5,,0.00,0,,359
2012-11-26,46,36,26,30,24,16,93,65,42,30.45,30.17,29.87,10,10,10,26,8,34,0.00,0,,10
2012-11-27,59,39,19,23,20,14,93,58,23,30.44,30.30,30.17,10,10,10,21,8,28,0.00,0,,221
2012-11-28,64,42,21,28,22,18,93,54,18,30.26,30.18,30.07,10,10,10,12,3,,0.00,0,,229
2012-11-29,73,55,37,32,23,14,75,38,12,30.07,30.00,29.95,10,10,10,21,9,26,0.00,0,,229
2012-11-30,68,49,30,41,27,16,81,48,24,30.05,29.98,29.88,10,10,10,12,2,,0.00,0,,204